Helmville, Montana
Current Conditions -  °F | °C
As of 8:53 AM on Sunday 23 Nov 2014 (Local Time) from KHLN Reporting Station
Clear Clear  
Wind Chill: -3°   Ceiling: Unl
Heat Index:   Visibility: 10mi
Dew Point: -7°   Wind: 13mph
Humidity: 52%   Direction: 290°WNW
Pressure: 29.97"   Gusts: 20mph
Location:  46.87°N, 112.96°W
Report Text: KHLN 231553Z 29011G17KT 10SM CLR 02/M07 A2997 RMK AO2 PK WND 27028/1458 SLP187 T00171072
Loading
Personal Weather Stations






























Interactive Weather Map New forecast layout! Learn more

10-Day Weather Forecast

Advertisements
Track Severe Weather on mobile